Time;durP1;ratioP1;P1;durP2;ratioP2;P2;SDS_P1;SDS_P2;PMS_P1;PMS_P2;Temp;Humidity;BMP_temperature;BMP_pressure;BME280_temperature;BME280_humidity;BME280_pressure;Samples;Min_cycle;Max_cycle;Signal;HPM_P1;HPM_P2
2023/05/11 00:00:36;;;;;;;21.00;12.45;;;;;;;12.08;100.00;101324.75;4988005;28;20038;-71
2023/05/11 00:03:02;;;;;;;19.55;13.02;;;;;;;12.09;100.00;101327.38;4989557;28;20386;-72
2023/05/11 00:05:28;;;;;;;20.55;13.43;;;;;;;12.08;100.00;101325.63;4990212;28;20073;-71
2023/05/11 00:07:53;;;;;;;20.98;13.43;;;;;;;12.07;100.00;101321.13;4988152;28;20034;-71
2023/05/11 00:10:18;;;;;;;25.08;13.70;;;;;;;12.07;100.00;101325.72;4988546;28;20041;-71
2023/05/11 00:12:44;;;;;;;19.73;12.90;;;;;;;12.05;100.00;101319.50;4988559;28;20038;-71
2023/05/11 00:15:09;;;;;;;22.55;14.02;;;;;;;12.03;100.00;101316.91;4989722;28;20049;-71
2023/05/11 00:17:35;;;;;;;18.58;13.02;;;;;;;12.03;100.00;101313.28;4988019;28;20491;-71
2023/05/11 00:20:00;;;;;;;20.70;13.00;;;;;;;12.02;100.00;101306.09;4989489;28;20045;-72
2023/05/11 00:22:25;;;;;;;23.02;13.13;;;;;;;12.00;100.00;101303.47;5002225;28;20073;-71
2023/05/11 00:24:51;;;;;;;21.52;12.77;;;;;;;11.99;100.00;101304.47;5008836;28;20045;-71
2023/05/11 00:27:16;;;;;;;20.48;13.82;;;;;;;11.98;100.00;101302.69;5007045;28;20030;-71
2023/05/11 00:29:42;;;;;;;23.33;13.40;;;;;;;11.95;100.00;101295.63;4989739;28;20494;-71
2023/05/11 00:32:07;;;;;;;19.33;13.60;;;;;;;11.94;100.00;101306.66;4987393;28;20502;-71
2023/05/11 00:34:32;;;;;;;20.02;13.32;;;;;;;11.92;100.00;101314.91;4987762;28;20037;-71
2023/05/11 00:36:58;;;;;;;26.05;15.75;;;;;;;11.85;100.00;101305.44;4990441;28;20121;-71
2023/05/11 00:39:24;;;;;;;24.08;13.82;;;;;;;11.90;100.00;101318.75;4987894;28;20076;-71
2023/05/11 00:41:49;;;;;;;30.98;16.95;;;;;;;11.86;100.00;101309.03;5001421;28;20038;-71
2023/05/11 00:44:14;;;;;;;28.63;18.00;;;;;;;11.85;100.00;101315.47;4988390;28;20513;-71
2023/05/11 00:46:41;;;;;;;31.48;16.45;;;;;;;11.86;100.00;101320.81;4988196;28;20045;-71
2023/05/11 00:49:06;;;;;;;23.85;14.30;;;;;;;11.85;100.00;101320.94;4986674;28;20038;-71
2023/05/11 00:51:32;;;;;;;25.92;15.45;;;;;;;11.87;100.00;101327.13;5005492;28;20091;-71
2023/05/11 00:53:59;;;;;;;26.40;15.30;;;;;;;11.83;100.00;101320.13;5006636;28;20512;-71
2023/05/11 00:56:24;;;;;;;26.88;15.40;;;;;;;11.85;100.00;101323.66;4997892;28;20073;-71
2023/05/11 00:58:51;;;;;;;23.98;14.77;;;;;;;11.84;100.00;101332.78;4987021;28;20026;-71
2023/05/11 01:01:17;;;;;;;26.83;16.85;;;;;;;11.85;100.00;101327.25;4988436;28;20033;-71
2023/05/11 01:03:43;;;;;;;26.05;16.25;;;;;;;11.87;100.00;101335.31;4986621;28;20509;-71
2023/05/11 01:06:23;;;;;;;24.58;14.98;;;;;;;11.88;100.00;101334.31;4987837;28;20034;-71
2023/05/11 01:09:03;;;;;;;28.45;16.60;;;;;;;11.90;100.00;101333.25;4985821;28;20038;-71
2023/05/11 01:12:01;;;;;;;29.13;16.42;;;;;;;11.93;100.00;101329.41;4991977;28;20125;-71
2023/05/11 01:14:40;;;;;;;30.38;16.80;;;;;;;11.93;100.00;101326.69;4988805;28;20084;-71
2023/05/11 01:17:17;;;;;;;25.52;15.68;;;;;;;11.93;100.00;101329.41;4986474;28;20184;-71
2023/05/11 01:19:47;;;;;;;29.77;16.10;;;;;;;11.91;100.00;101329.53;4997107;28;20473;-71
2023/05/11 01:22:27;;;;;;;30.77;17.27;;;;;;;11.94;100.00;101329.31;4985580;28;20037;-72
2023/05/11 01:25:10;;;;;;;29.00;17.48;;;;;;;11.92;100.00;101333.13;4986754;28;20042;-72
2023/05/11 01:27:54;;;;;;;31.47;17.30;;;;;;;11.91;100.00;101332.25;4986709;28;20155;-71
2023/05/11 01:30:53;;;;;;;29.45;16.63;;;;;;;11.94;100.00;101331.19;4991074;28;20398;-71
2023/05/11 01:33:26;;;;;;;31.80;18.30;;;;;;;11.92;100.00;101333.13;4986258;28;20383;-71
2023/05/11 01:35:57;;;;;;;31.30;16.88;;;;;;;11.89;100.00;101336.97;5002686;28;20494;-71
2023/05/11 01:38:28;;;;;;;32.00;17.00;;;;;;;11.89;100.00;101333.34;4985483;28;20034;-71
2023/05/11 01:40:56;;;;;;;31.23;17.45;;;;;;;11.89;100.00;101339.69;4987747;28;20126;-71
2023/05/11 01:43:26;;;;;;;34.25;17.33;;;;;;;11.89;100.00;101334.22;4986280;28;20038;-71
2023/05/11 01:45:54;;;;;;;31.08;16.83;;;;;;;11.88;100.00;101337.91;4987940;28;20517;-71
2023/05/11 01:48:23;;;;;;;29.27;17.23;;;;;;;11.87;100.00;101335.31;4999082;28;20502;-71
2023/05/11 01:50:50;;;;;;;29.73;18.17;;;;;;;11.87;100.00;101336.19;4991403;28;20275;-71
2023/05/11 01:53:16;;;;;;;31.23;18.58;;;;;;;11.87;100.00;101336.19;4986064;28;20105;-71
2023/05/11 01:55:45;;;;;;;34.97;19.27;;;;;;;11.85;100.00;101337.28;4986157;28;20046;-71
2023/05/11 01:58:13;;;;;;;32.58;17.63;;;;;;;11.86;100.00;101336.28;4985593;28;20109;-71
2023/05/11 02:00:40;;;;;;;29.77;17.65;;;;;;;11.85;100.00;101340.00;4987749;28;20042;-71
2023/05/11 02:03:07;;;;;;;32.35;18.35;;;;;;;11.83;100.00;101331.91;4985964;28;20544;-71
2023/05/11 02:05:33;;;;;;;29.92;16.70;;;;;;;11.84;100.00;101330.94;4994519;28;20049;-71
2023/05/11 02:08:03;;;;;;;29.50;17.95;;;;;;;11.84;100.00;101333.66;4985596;28;20444;-71
2023/05/11 02:10:32;;;;;;;29.00;17.10;;;;;;;11.84;100.00;101330.06;4997346;28;20473;-71
2023/05/11 02:12:59;;;;;;;33.15;18.27;;;;;;;11.81;100.00;101336.59;5005024;28;20103;-71
2023/05/11 02:15:25;;;;;;;30.83;17.42;;;;;;;11.82;100.00;101332.00;5003368;28;20483;-71
2023/05/11 02:17:53;;;;;;;30.83;16.55;;;;;;;11.80;100.00;101331.22;4985578;28;20061;-71
2023/05/11 02:20:19;;;;;;;30.88;17.20;;;;;;;11.80;100.00;101331.22;4985754;28;20317;-70
2023/05/11 02:22:46;;;;;;;30.70;17.88;;;;;;;11.79;100.00;101327.63;4984690;28;20098;-71
2023/05/11 02:25:12;;;;;;;29.70;16.85;;;;;;;11.74;100.00;101321.63;4992341;28;20037;-71
2023/05/11 02:27:39;;;;;;;40.42;19.10;;;;;;;11.71;100.00;101317.28;5005149;28;20017;-71
2023/05/11 02:30:07;;;;;;;34.92;18.67;;;;;;;11.69;100.00;101321.94;4987056;28;20457;-71
2023/05/11 02:32:36;;;;;;;35.08;19.58;;;;;;;11.64;100.00;101318.66;4985408;28;20026;-71
2023/05/11 02:35:11;;;;;;;35.38;19.45;;;;;;;11.61;100.00;101324.34;4985440;28;20490;-71
2023/05/11 02:37:45;;;;;;;37.03;18.95;;;;;;;11.60;100.00;101324.44;4984461;28;20037;-71
2023/05/11 02:40:18;;;;;;;32.53;17.77;;;;;;;11.58;100.00;101321.81;4985586;28;20045;-70
2023/05/11 02:42:48;;;;;;;35.20;19.15;;;;;;;11.59;100.00;101326.28;4985818;28;20045;-71
2023/05/11 02:45:17;;;;;;;36.83;19.17;;;;;;;11.59;100.00;101331.75;5004503;28;20137;-71
2023/05/11 02:47:51;;;;;;;35.03;19.25;;;;;;;11.59;100.00;101333.59;5000907;28;20105;-71
2023/05/11 02:50:23;;;;;;;35.53;18.15;;;;;;;11.56;100.00;101329.22;4985532;28;20394;-71
2023/05/11 02:52:52;;;;;;;34.53;18.55;;;;;;;11.53;100.00;101334.03;4984384;28;20642;-71
2023/05/11 02:55:19;;;;;;;33.28;17.75;;;;;;;11.48;100.00;101332.47;4985799;28;20050;-71
2023/05/11 02:57:45;;;;;;;35.30;18.52;;;;;;;11.43;100.00;101328.34;4985794;28;20398;-71
2023/05/11 03:00:11;;;;;;;34.38;18.85;;;;;;;11.41;100.00;101330.28;4986791;28;20101;-71
2023/05/11 03:02:37;;;;;;;32.60;18.13;;;;;;;11.37;100.00;101328.72;4985711;28;20038;-71
2023/05/11 03:05:03;;;;;;;34.47;19.52;;;;;;;11.35;100.00;101326.13;4989898;28;20050;-71
2023/05/11 03:07:30;;;;;;;39.97;20.85;;;;;;;11.36;100.00;101337.88;4995854;28;20050;-71
2023/05/11 03:09:56;;;;;;;42.45;21.75;;;;;;;11.36;100.00;101335.16;4987984;28;20580;-71
2023/05/11 03:12:22;;;;;;;44.22;22.65;;;;;;;11.33;100.00;101330.81;4989003;28;20033;-71
2023/05/11 03:14:48;;;;;;;37.60;20.08;;;;;;;11.32;100.00;101326.31;5001735;28;20133;-72
2023/05/11 03:17:16;;;;;;;33.67;18.60;;;;;;;11.32;100.00;101334.50;4989471;28;20050;-71
2023/05/11 03:19:42;;;;;;;38.30;19.85;;;;;;;11.32;100.00;101333.63;4989542;28;20030;-72
2023/05/11 03:22:10;;;;;;;33.30;18.70;;;;;;;11.29;100.00;101339.28;4987797;28;20414;-71
2023/05/11 03:24:36;;;;;;;32.58;18.70;;;;;;;11.30;100.00;101339.19;4990727;28;20038;-71
2023/05/11 03:27:04;;;;;;;32.72;18.02;;;;;;;11.28;100.00;101338.41;4990002;28;20060;-71
2023/05/11 03:29:33;;;;;;;31.67;16.98;;;;;;;11.28;100.00;101341.13;5000850;28;20081;-71
2023/05/11 03:31:58;;;;;;;28.95;17.17;;;;;;;11.28;100.00;101332.06;5010174;28;20544;-71
2023/05/11 03:34:24;;;;;;;33.28;18.02;;;;;;;11.26;100.00;101325.88;5006475;28;20738;-71
2023/05/11 03:36:51;;;;;;;38.08;18.33;;;;;;;11.26;100.00;101343.09;4996415;28;20037;-71
2023/05/11 03:39:20;;;;;;;37.42;20.13;;;;;;;11.22;100.00;101330.66;4992022;28;20141;-71
2023/05/11 03:41:48;;;;;;;41.38;20.70;;;;;;;11.18;100.00;101332.69;5000744;28;20081;-71
2023/05/11 03:44:19;;;;;;;35.58;20.73;;;;;;;11.15;100.00;101330.19;4998401;28;20048;-71
2023/05/11 03:46:47;;;;;;;45.38;21.98;;;;;;;11.14;100.00;101328.44;5004099;28;20077;-71
2023/05/11 03:49:14;;;;;;;39.33;20.55;;;;;;;11.11;100.00;101325.94;4987979;28;20134;-71
2023/05/11 03:51:41;;;;;;;44.65;21.90;;;;;;;11.08;100.00;101327.97;4987438;28;20033;-72
2023/05/11 03:54:07;;;;;;;41.80;21.42;;;;;;;11.08;100.00;101327.97;4987543;28;20482;-71
2023/05/11 03:56:38;;;;;;;42.47;20.85;;;;;;;11.05;100.00;101326.34;5002083;28;20125;-71
2023/05/11 03:59:04;;;;;;;37.85;19.73;;;;;;;11.04;100.00;101331.88;4988774;28;20316;-71
2023/05/11 04:01:30;;;;;;;36.00;19.52;;;;;;;10.99;100.00;101334.91;4990148;28;20105;-71
2023/05/11 04:03:56;;;;;;;38.95;20.55;;;;;;;10.98;100.00;101342.22;4988374;28;20406;-71
2023/05/11 04:06:22;;;;;;;41.88;20.60;;;;;;;10.98;100.00;101342.22;4988254;28;20038;-71
2023/05/11 04:08:56;;;;;;;44.88;20.60;;;;;;;10.99;100.00;101333.06;4987911;28;20070;-71
2023/05/11 04:11:21;;;;;;;38.13;20.73;;;;;;;11.00;100.00;101333.94;4988791;28;20497;-71
2023/05/11 04:13:47;;;;;;;37.80;19.75;;;;;;;10.99;100.00;101340.34;4989417;28;20026;-71
2023/05/11 04:16:12;;;;;;;35.00;18.67;;;;;;;11.01;100.00;101337.56;4989247;28;20065;-71
2023/05/11 04:18:37;;;;;;;33.35;18.65;;;;;;;11.02;100.00;101334.72;4987774;28;20038;-71
2023/05/11 04:21:05;;;;;;;34.53;19.15;;;;;;;11.05;100.00;101337.25;5003573;28;20109;-71
2023/05/11 04:23:30;;;;;;;35.80;19.55;;;;;;;11.09;100.00;101341.47;4987596;28;20038;-71
2023/05/11 04:25:58;;;;;;;35.25;19.33;;;;;;;11.12;100.00;101335.84;4988002;28;20026;-71
2023/05/11 04:28:26;;;;;;;34.53;18.08;;;;;;;11.17;100.00;101340.97;5004532;28;20486;-71
2023/05/11 04:30:56;;;;;;;42.33;21.17;;;;;;;11.22;100.00;101336.09;4988885;28;20521;-71
2023/05/11 04:33:22;;;;;;;38.42;20.75;;;;;;;11.26;100.00;101332.19;4988666;28;20399;-71
2023/05/11 04:35:52;;;;;;;38.08;19.98;;;;;;;11.30;100.00;101330.16;5001771;28;20037;-71
2023/05/11 04:38:19;;;;;;;44.17;21.85;;;;;;;11.37;100.00;101336.91;4985992;28;20467;-71
2023/05/11 04:40:44;;;;;;;43.88;22.88;;;;;;;11.43;100.00;101341.97;4987904;28;20018;-71
2023/05/11 04:43:10;;;;;;;41.28;21.33;;;;;;;11.45;100.00;101338.13;4997001;28;20543;-72
2023/05/11 04:45:35;;;;;;;42.05;22.30;;;;;;;11.47;100.00;101341.66;5002103;28;20038;-72
2023/05/11 04:48:01;;;;;;;39.53;21.50;;;;;;;11.47;100.00;101340.75;4999273;28;20038;-71
2023/05/11 04:50:26;;;;;;;37.35;21.63;;;;;;;11.48;100.00;101347.97;4998424;28;20117;-71
2023/05/11 04:52:52;;;;;;;40.33;21.98;;;;;;;11.50;100.00;101346.00;5001325;28;20117;-71
2023/05/11 04:55:17;;;;;;;44.70;22.77;;;;;;;11.51;100.00;101347.72;5002447;28;20121;-71
2023/05/11 04:57:43;;;;;;;39.53;22.13;;;;;;;11.52;100.00;101346.78;4986974;28;20471;-71
2023/05/11 05:00:09;;;;;;;36.08;20.88;;;;;;;11.52;100.00;101354.97;4998678;28;20084;-71
2023/05/11 05:02:34;;;;;;;40.33;21.98;;;;;;;11.53;100.00;101359.41;5005008;28;20030;-71
2023/05/11 05:04:59;;;;;;;47.25;22.17;;;;;;;11.58;100.00;101361.84;5007924;28;20038;-72
2023/05/11 05:07:25;;;;;;;41.92;23.20;;;;;;;11.62;100.00;101360.66;4992816;28;20043;-71
2023/05/11 05:09:51;;;;;;;44.78;23.75;;;;;;;11.67;100.00;101364.78;4988312;28;20479;-71
2023/05/11 05:12:17;;;;;;;40.10;21.17;;;;;;;11.75;100.00;101370.59;4998397;28;20490;-72
2023/05/11 05:14:42;;;;;;;53.38;25.05;;;;;;;11.81;100.00;101373.88;4993637;28;20042;-71
2023/05/11 05:17:08;;;;;;;44.15;24.02;;;;;;;11.82;100.00;101360.16;4987688;28;20035;-71
2023/05/11 05:19:33;;;;;;;50.47;25.70;;;;;;;11.90;100.00;101373.28;4986588;28;20053;-71
2023/05/11 05:21:59;;;;;;;48.10;25.23;;;;;;;11.96;100.00;101372.84;4985720;28;20031;-71
2023/05/11 05:24:25;;;;;;;50.05;23.77;;;;;;;11.99;100.00;101373.50;4987629;28;20034;-71
2023/05/11 05:26:50;;;;;;;54.53;25.83;;;;;;;12.04;100.00;101375.91;4986468;28;20085;-71
2023/05/11 05:29:16;;;;;;;56.47;25.67;;;;;;;12.05;100.00;101372.19;4986697;28;20054;-71
2023/05/11 05:31:41;;;;;;;49.50;25.23;;;;;;;12.10;100.00;101380.94;4986501;28;20029;-71
2023/05/11 05:34:07;;;;;;;49.42;25.10;;;;;;;12.14;100.00;101378.84;4986065;28;20141;-71
2023/05/11 05:36:33;;;;;;;51.38;25.45;;;;;;;12.15;100.00;101376.00;4985623;28;20410;-71
2023/05/11 05:38:59;;;;;;;51.33;25.60;;;;;;;12.16;100.00;101380.47;5007987;28;20026;-72
2023/05/11 05:41:24;;;;;;;53.50;28.17;;;;;;;12.20;100.00;101384.75;4987004;28;20033;-71
2023/05/11 05:43:50;;;;;;;56.40;26.10;;;;;;;12.26;100.00;101386.16;4986363;28;20037;-71
2023/05/11 05:46:16;;;;;;;53.70;26.70;;;;;;;12.34;100.00;101380.16;4987762;28;20027;-71
2023/05/11 05:48:41;;;;;;;53.85;25.00;;;;;;;12.43;100.00;101379.50;4986110;28;20058;-71
2023/05/11 05:51:08;;;;;;;48.75;24.15;;;;;;;12.56;100.00;101382.25;4998662;28;20072;-72
2023/05/11 05:53:33;;;;;;;55.60;25.38;;;;;;;12.64;100.00;101386.16;4985185;28;20069;-71
2023/05/11 05:55:59;;;;;;;53.72;26.38;;;;;;;12.70;100.00;101393.03;4986484;28;20026;-72
2023/05/11 05:58:24;;;;;;;52.35;27.27;;;;;;;12.75;100.00;101396.28;4997760;28;20065;-71
2023/05/11 06:00:51;;;;;;;54.00;25.38;;;;;;;12.82;100.00;101386.66;4986344;28;20042;-71
2023/05/11 06:03:16;;;;;;;52.35;25.98;;;;;;;12.90;100.00;101397.03;4987249;28;20453;-71
2023/05/11 06:05:41;;;;;;;54.13;26.85;;;;;;;12.95;100.00;101392.97;4985950;28;20069;-72
2023/05/11 06:08:07;;;;;;;61.40;27.80;;;;;;;12.98;100.00;101400.94;4984518;28;20073;-71
2023/05/11 06:10:32;;;;;;;57.72;27.58;;;;;;;13.01;100.00;101395.25;5002214;28;20401;-72
2023/05/11 06:12:57;;;;;;;55.80;26.75;;;;;;;13.07;100.00;101407.59;5000171;28;20470;-72
2023/05/11 06:15:25;;;;;;;57.88;29.05;;;;;;;13.11;100.00;101403.66;4995099;28;20414;-72
2023/05/11 06:17:57;;;;;;;60.22;30.10;;;;;;;13.13;100.00;101404.41;4987105;28;20077;-72
2023/05/11 06:20:23;;;;;;;60.28;29.38;;;;;;;13.16;100.00;101400.56;4985905;28;20042;-72
2023/05/11 06:22:48;;;;;;;67.25;31.00;;;;;;;13.27;100.00;101409.72;4997730;28;20316;-72
2023/05/11 06:25:13;;;;;;;64.95;29.35;;;;;;;13.35;100.00;101413.78;4985492;28;20061;-72
2023/05/11 06:27:39;;;;;;;61.72;29.48;;;;;;;13.41;100.00;101408.69;4985612;28;20030;-72
2023/05/11 06:30:06;;;;;;;70.07;30.42;;;;;;;13.41;100.00;101414.16;4986124;28;20030;-71
2023/05/11 06:32:34;;;;;;;62.85;30.83;;;;;;;13.41;100.00;101416.03;4985185;28;20030;-72
2023/05/11 06:35:01;;;;;;;61.42;31.17;;;;;;;13.39;100.00;101416.16;4985676;28;20050;-70
2023/05/11 06:37:28;;;;;;;62.83;30.98;;;;;;;13.40;100.00;101411.56;4997269;28;20030;-71
2023/05/11 06:39:54;;;;;;;63.80;31.27;;;;;;;13.41;100.00;101405.97;5005792;28;20026;-71
2023/05/11 06:42:22;;;;;;;60.17;30.27;;;;;;;13.43;100.00;101414.94;5005058;28;20034;-71
2023/05/11 06:44:48;;;;;;;68.18;31.90;;;;;;;13.41;100.00;101416.03;4991997;28;20101;-71
2023/05/11 06:47:14;;;;;;;69.75;32.05;;;;;;;13.41;100.00;101416.03;4989327;28;20459;-71
2023/05/11 06:49:43;;;;;;;72.95;33.03;;;;;;;13.38;100.00;101417.16;4990793;28;20030;-72
2023/05/11 06:52:09;;;;;;;67.22;32.47;;;;;;;13.36;100.00;101421.84;4988813;28;20108;-72
2023/05/11 06:54:35;;;;;;;75.70;32.97;;;;;;;13.36;100.00;101420.97;4989353;28;20042;-72
2023/05/11 06:57:02;;;;;;;72.00;32.20;;;;;;;13.38;100.00;101427.19;4989994;28;20144;-72
2023/05/11 06:59:29;;;;;;;67.80;31.85;;;;;;;13.42;100.00;101424.09;4990913;28;20464;-71
2023/05/11 07:01:54;;;;;;;65.85;32.40;;;;;;;13.43;100.00;101428.59;4973127;28;20041;-71
2023/05/11 07:04:20;;;;;;;64.07;33.70;;;;;;;13.44;100.00;101427.63;4990415;28;20129;-71
2023/05/11 07:06:45;;;;;;;70.57;33.72;;;;;;;13.43;100.00;101431.34;4989201;28;20057;-71
2023/05/11 07:09:11;;;;;;;67.55;33.42;;;;;;;13.44;100.00;101433.06;4988446;28;20038;-71
2023/05/11 07:11:36;;;;;;;66.90;32.92;;;;;;;13.40;100.00;101430.69;4988847;28;20509;-72
2023/05/11 07:14:02;;;;;;;67.78;32.17;;;;;;;13.35;100.00;101436.50;4989226;28;20416;-72
2023/05/11 07:16:27;;;;;;;70.53;33.13;;;;;;;13.37;100.00;101439.09;4995087;28;20042;-71
2023/05/11 07:18:53;;;;;;;65.65;32.65;;;;;;;13.40;100.00;101437.03;4988704;28;20073;-72
2023/05/11 07:21:20;;;;;;;61.50;29.90;;;;;;;13.47;100.00;101442.88;4993781;28;20740;-72
2023/05/11 07:23:46;;;;;;;69.40;31.80;;;;;;;13.53;100.00;101435.13;4989662;28;20045;-72
2023/05/11 07:26:12;;;;;;;58.78;30.50;;;;;;;13.62;100.00;101440.88;4988581;28;20042;-72
2023/05/11 07:28:37;;;;;;;66.90;30.67;;;;;;;13.76;100.00;101441.56;4988228;28;20066;-72
2023/05/11 07:31:03;;;;;;;59.80;29.33;;;;;;;13.79;100.00;101445.94;4988500;28;20050;-72
2023/05/11 07:33:32;;;;;;;69.00;29.52;;;;;;;13.79;100.00;101440.44;4990082;28;20061;-72
2023/05/11 07:35:57;;;;;;;64.00;30.33;;;;;;;13.82;100.00;101444.84;4990225;28;20038;-72
2023/05/11 07:38:22;;;;;;;58.08;29.58;;;;;;;13.87;100.00;101439.88;4986950;28;20053;-72
2023/05/11 07:40:48;;;;;;;64.45;29.83;;;;;;;13.91;100.00;101444.13;4989616;28;20527;-72
2023/05/11 07:43:14;;;;;;;56.08;28.85;;;;;;;13.96;100.00;101441.91;4989394;28;20466;-72
2023/05/11 07:45:39;;;;;;;64.70;31.83;;;;;;;14.00;100.00;101447.03;4988642;28;20095;-72
2023/05/11 07:48:04;;;;;;;61.97;31.85;;;;;;;14.01;100.00;101442.41;4989425;28;20508;-72
2023/05/11 07:50:30;;;;;;;65.53;31.58;;;;;;;14.01;100.00;101447.88;4989440;28;20046;-72
2023/05/11 07:52:56;;;;;;;65.30;32.45;;;;;;;14.01;100.00;101445.16;4988810;28;20026;-72
2023/05/11 07:55:23;;;;;;;62.45;30.00;;;;;;;14.02;100.00;101446.91;4989461;28;20042;-72
2023/05/11 07:57:50;;;;;;;69.15;33.33;;;;;;;14.03;100.00;101452.28;4989737;28;20041;-72
2023/05/11 08:00:16;;;;;;;73.32;31.48;;;;;;;14.09;100.00;101445.44;4989199;28;20117;-72
2023/05/11 08:02:41;;;;;;;58.45;31.38;;;;;;;14.16;100.00;101452.16;4989365;28;20447;-72
2023/05/11 08:05:08;;;;;;;60.92;30.10;;;;;;;14.15;99.36;101452.28;4989139;28;20168;-71
2023/05/11 08:07:33;;;;;;;61.38;29.85;;;;;;;14.18;100.00;101452.94;4987875;28;20058;-72
2023/05/11 08:09:59;;;;;;;59.70;30.38;;;;;;;14.17;99.62;101444.81;4989870;28;20077;-72
2023/05/11 08:12:24;;;;;;;57.45;29.75;;;;;;;14.29;99.70;101449.34;4989621;28;20034;-71
2023/05/11 08:14:49;;;;;;;63.80;30.15;;;;;;;14.36;99.22;101460.69;4989255;28;20046;-71
2023/05/11 08:17:15;;;;;;;67.45;29.67;;;;;;;14.40;100.00;101456.72;4989019;28;20126;-71
2023/05/11 08:19:40;;;;;;;61.60;30.55;;;;;;;14.44;100.00;101458.22;4989106;28;20022;-71
2023/05/11 08:22:06;;;;;;;57.28;29.23;;;;;;;14.50;100.00;101457.75;5002635;28;20565;-72
2023/05/11 08:24:31;;;;;;;59.67;28.98;;;;;;;14.68;99.25;101459.03;4989269;28;20061;-71
2023/05/11 08:26:57;;;;;;;60.55;29.55;;;;;;;14.76;98.31;101467.50;4989397;28;20034;-71
2023/05/11 08:29:26;;;;;;;63.67;30.80;;;;;;;14.62;96.68;101453.19;4988838;28;20390;-72
2023/05/11 08:31:51;;;;;;;79.60;35.58;;;;;;;14.49;96.34;101469.72;4988519;28;20141;-72
2023/05/11 08:34:16;;;;;;;79.53;35.25;;;;;;;14.46;97.87;101456.25;4988793;28;20042;-72
2023/05/11 08:36:43;;;;;;;82.50;35.10;;;;;;;14.43;96.85;101461.94;4987354;28;20475;-72
2023/05/11 08:39:08;;;;;;;76.97;35.10;;;;;;;14.33;96.81;101463.69;4986640;28;20069;-72
2023/05/11 08:41:33;;;;;;;76.88;33.20;;;;;;;14.33;98.02;101461.81;4988658;28;20073;-72
2023/05/11 08:43:59;;;;;;;80.60;36.47;;;;;;;14.42;98.25;101458.34;4988816;28;20096;-72
2023/05/11 08:46:28;;;;;;;81.90;35.88;;;;;;;14.48;96.72;101455.16;4989503;28;20474;-72
2023/05/11 08:48:54;;;;;;;92.55;38.50;;;;;;;14.50;96.21;101452.28;4987649;28;20035;-72
2023/05/11 08:51:21;;;;;;;86.90;38.40;;;;;;;14.58;96.67;101457.16;5000699;28;20128;-73
2023/05/11 08:53:47;;;;;;;89.88;36.60;;;;;;;14.74;98.72;101446.75;4987688;28;20050;-72
2023/05/11 08:56:14;;;;;;;85.78;37.38;;;;;;;14.96;98.14;101462.28;4988120;28;20037;-72
2023/05/11 08:58:41;;;;;;;79.90;36.92;;;;;;;15.16;95.88;101456.06;4988220;28;20041;-73
2023/05/11 09:01:11;;;;;;;86.55;36.42;;;;;;;15.40;96.67;101460.53;4986972;28;20034;-72
2023/05/11 09:03:38;;;;;;;81.68;36.33;;;;;;;15.51;95.12;101465.97;5000758;28;20072;-73
2023/05/11 09:06:06;;;;;;;79.50;37.28;;;;;;;15.67;94.64;101461.00;5002972;28;20557;-73
2023/05/11 09:08:33;;;;;;;89.95;38.05;;;;;;;15.72;92.48;101466.09;4985275;28;20042;-73
2023/05/11 09:11:00;;;;;;;80.72;36.60;;;;;;;15.78;92.80;101471.06;4987881;28;20585;-72
2023/05/11 09:13:25;;;;;;;84.25;37.17;;;;;;;15.85;92.32;101475.00;4988638;28;20041;-73
2023/05/11 09:15:51;;;;;;;94.30;39.53;;;;;;;15.90;91.99;101469.13;4988108;28;20676;-72
2023/05/11 09:18:16;;;;;;;87.82;40.03;;;;;;;15.98;92.41;101474.84;4987587;28;20034;-73
2023/05/11 09:20:43;;;;;;;97.07;40.78;;;;;;;15.95;89.04;101481.50;4986699;28;20042;-73
2023/05/11 09:23:08;;;;;;;99.65;40.47;;;;;;;15.94;89.07;101474.22;4986219;28;20513;-72
2023/05/11 09:25:34;;;;;;;101.05;42.50;;;;;;;15.88;88.58;101480.25;4986462;28;20042;-72
2023/05/11 09:27:59;;;;;;;94.20;41.35;;;;;;;16.02;90.39;101473.59;4986528;28;20407;-72
2023/05/11 09:30:25;;;;;;;96.55;40.42;;;;;;;16.05;89.57;101473.34;5002286;28;20024;-72
2023/05/11 09:32:55;;;;;;;93.03;40.10;;;;;;;16.18;90.39;101475.88;4994527;28;20057;-73
2023/05/11 09:35:22;;;;;;;87.22;38.92;;;;;;;16.23;88.50;101481.88;5007235;28;20073;-72
2023/05/11 09:38:01;;;;;;;97.50;40.97;;;;;;;16.43;88.68;101475.50;4989988;28;20048;-73
2023/05/11 09:40:27;;;;;;;94.07;38.65;;;;;;;16.73;86.96;101471.09;4988101;28;20042;-73
2023/05/11 09:42:53;;;;;;;89.55;40.53;;;;;;;16.97;86.70;101473.53;4987584;28;20058;-73
2023/05/11 09:45:35;;;;;;;92.13;38.42;;;;;;;17.20;88.65;101468.72;4987580;28;20073;-73
2023/05/11 09:48:02;;;;;;;84.93;37.40;;;;;;;17.33;86.58;101466.59;4987394;28;20042;-74
2023/05/11 09:50:32;;;;;;;79.80;38.40;;;;;;;17.46;84.82;101480.97;4987684;28;20080;-74
2023/05/11 09:52:57;;;;;;;77.43;35.47;;;;;;;17.52;83.24;101471.28;4986203;28;20112;-73
2023/05/11 09:55:23;;;;;;;83.07;37.53;;;;;;;17.63;83.58;101471.19;4987133;28;20494;-74
2023/05/11 09:57:54;;;;;;;79.72;36.72;;;;;;;17.79;83.79;101474.28;4987052;28;20916;-74
2023/05/11 10:00:19;;;;;;;72.45;36.10;;;;;;;17.79;81.16;101474.28;4987213;28;20132;-73
2023/05/11 10:02:45;;;;;;;75.78;35.60;;;;;;;17.82;82.08;101471.25;4987115;28;20042;-73
2023/05/11 10:05:12;;;;;;;68.97;33.80;;;;;;;17.79;80.29;101473.41;4985575;28;20054;-74
2023/05/11 10:07:38;;;;;;;70.07;35.30;;;;;;;17.63;77.51;101468.44;4986676;28;20057;-74
2023/05/11 10:10:08;;;;;;;71.07;34.40;;;;;;;17.50;80.92;101471.44;4987296;28;20092;-74
2023/05/11 10:12:37;;;;;;;71.00;35.28;;;;;;;17.46;80.75;101467.22;4987058;28;20050;-74
2023/05/11 10:15:09;;;;;;;68.65;33.88;;;;;;;17.45;82.80;101468.25;4986170;28;20133;-74
2023/05/11 10:17:35;;;;;;;62.97;32.63;;;;;;;17.34;80.71;101474.69;4985604;28;20164;-73
2023/05/11 10:20:03;;;;;;;72.00;36.20;;;;;;;17.36;84.29;101473.72;4985972;28;20037;-73
2023/05/11 10:22:30;;;;;;;70.82;35.95;;;;;;;17.47;82.47;101465.34;4986316;28;20505;-73
2023/05/11 10:24:57;;;;;;;83.53;36.22;;;;;;;17.45;82.37;101468.25;4987662;28;20529;-74
2023/05/11 10:27:22;;;;;;;76.57;34.40;;;;;;;17.45;78.83;101476.50;4986430;28;20029;-73
2023/05/11 10:29:49;;;;;;;72.88;35.20;;;;;;;17.50;81.65;101474.19;4998566;28;20201;-73
2023/05/11 10:32:16;;;;;;;70.65;34.00;;;;;;;17.46;81.09;101469.97;5004298;28;20030;-73
2023/05/11 10:34:43;;;;;;;69.38;35.63;;;;;;;17.43;79.24;101472.13;5006225;28;20045;-73
2023/05/11 10:37:09;;;;;;;74.80;33.00;;;;;;;17.47;79.47;101471.72;4994657;28;20100;-73
2023/05/11 10:39:39;;;;;;;69.35;33.95;;;;;;;17.53;81.01;101473.91;5003013;28;20052;-74
2023/05/11 10:42:10;;;;;;;67.05;32.38;;;;;;;17.52;77.99;101471.28;5004195;28;20076;-74
2023/05/11 10:45:00;;;;;;;69.13;31.83;;;;;;;17.56;80.21;101473.63;4994220;28;20505;-73
2023/05/11 10:48:06;;;;;;;65.32;31.95;;;;;;;17.74;81.83;101459.22;4987445;28;20038;-73
2023/05/11 10:51:16;;;;;;;67.63;30.83;;;;;;;17.97;82.02;101468.94;4998322;28;20076;-73
2023/05/11 10:54:20;;;;;;;63.03;30.02;;;;;;;17.94;78.59;101460.97;4974370;28;20046;-73
2023/05/11 10:56:59;;;;;;;64.88;31.17;;;;;;;18.00;79.44;101476.03;4986600;28;20097;-73
2023/05/11 10:59:46;;;;;;;61.72;30.30;;;;;;;17.98;80.33;101467.91;4987216;28;20070;-73
2023/05/11 11:02:12;;;;;;;61.42;28.40;;;;;;;17.96;80.15;101472.72;4986676;28;20041;-73
2023/05/11 11:04:48;;;;;;;55.10;27.20;;;;;;;18.16;81.52;101464.44;4986629;28;20050;-73
2023/05/11 11:07:18;;;;;;;54.60;25.52;;;;;;;18.16;76.50;101459.81;4985038;28;20045;-73